createdAt,value
2022-10-16T00:00:54.074Z,73.14
2022-10-16T00:01:56.447Z,73.16
2022-10-16T00:02:59.009Z,73.34
2022-10-16T00:04:01.617Z,73.05
2022-10-16T00:05:04.991Z,73.32
2022-10-16T00:06:08.488Z,73.53
2022-10-16T00:07:11.982Z,73.49
2022-10-16T00:08:15.455Z,73.64
2022-10-16T00:09:17.945Z,73.59
2022-10-16T00:10:21.795Z,73.06
2022-10-16T00:11:26.446Z,73.09
2022-10-16T00:12:28.665Z,73.17
2022-10-16T00:13:32.287Z,73.32
2022-10-16T00:14:34.281Z,73.54
2022-10-16T00:15:37.375Z,73.41
2022-10-16T00:16:40.558Z,73.45
2022-10-16T00:17:43.667Z,73.51
2022-10-16T00:18:45.700Z,73.13
2022-10-16T00:19:47.600Z,73.30
2022-10-16T00:20:49.504Z,73.36
2022-10-16T00:21:51.281Z,73.54
2022-10-16T00:22:53.483Z,73.41
2022-10-16T00:23:58.279Z,73.22
2022-10-16T00:25:00.393Z,73.33
2022-10-16T00:26:06.550Z,73.30
2022-10-16T00:27:08.300Z,72.67
2022-10-16T00:28:10.168Z,72.54
2022-10-16T00:29:12.062Z,72.58
2022-10-16T00:30:14.184Z,72.41
2022-10-16T00:31:17.522Z,72.55
2022-10-16T00:33:32.620Z,72.55
2022-10-16T00:34:35.034Z,72.35
2022-10-16T00:35:36.893Z,72.05
2022-10-16T00:36:39.811Z,71.56
2022-10-16T00:37:41.657Z,71.56
2022-10-16T00:38:44.190Z,71.58
2022-10-16T00:39:45.970Z,71.46
2022-10-16T00:40:48.107Z,71.32
2022-10-16T00:41:49.928Z,70.75
2022-10-16T00:42:51.792Z,70.74
2022-10-16T00:44:00.035Z,70.41
2022-10-16T00:45:03.048Z,70.28
2022-10-16T00:47:31.709Z,70.52
2022-10-16T00:48:33.910Z,70.53
2022-10-16T00:49:35.988Z,70.46
2022-10-16T00:50:38.523Z,70.50
2022-10-16T00:51:46.402Z,70.56
2022-10-16T00:52:50.254Z,70.75
2022-10-16T00:53:52.753Z,70.67
2022-10-16T00:54:55.610Z,70.73
2022-10-16T00:55:57.622Z,70.83
2022-10-16T00:57:02.426Z,70.95
2022-10-16T00:58:04.555Z,70.70
2022-10-16T00:59:10.062Z,70.87
2022-10-16T01:00:17.508Z,71.35
2022-10-16T01:01:19.517Z,71.25
2022-10-16T01:02:21.801Z,71.53
2022-10-16T01:03:27.264Z,71.37
2022-10-16T01:04:32.850Z,71.50
2022-10-16T01:05:41.626Z,71.38
2022-10-16T01:06:49.879Z,71.38
2022-10-16T01:07:58.357Z,71.32
2022-10-16T01:09:16.214Z,71.19
2022-10-16T01:10:37.126Z,71.25
2022-10-16T01:11:45.697Z,71.35
2022-10-16T01:13:03.444Z,71.27
2022-10-16T01:14:09.023Z,70.96
2022-10-16T01:15:29.989Z,70.89
2022-10-16T01:16:41.646Z,71.13
2022-10-16T01:17:47.929Z,71.14
2022-10-16T01:18:56.220Z,71.11
2022-10-16T01:20:18.500Z,70.89
2022-10-16T01:21:26.554Z,70.80
2022-10-16T01:22:32.075Z,71.15
2022-10-16T01:23:55.663Z,71.27
2022-10-16T01:25:01.825Z,71.07
2022-10-16T01:26:16.671Z,71.17
2022-10-16T01:27:32.058Z,71.20
2022-10-16T01:28:46.335Z,71.43
2022-10-16T01:30:13.426Z,71.30
2022-10-16T01:31:19.120Z,71.04
2022-10-16T01:32:41.988Z,71.21
2022-10-16T01:33:47.593Z,71.27
2022-10-16T01:35:08.406Z,71.13
2022-10-16T01:36:17.662Z,71.30
2022-10-16T01:37:23.662Z,71.41
2022-10-16T01:38:35.391Z,71.10
2022-10-16T01:39:40.335Z,71.33
2022-10-16T01:40:49.069Z,71.38
2022-10-16T01:41:54.620Z,71.64
2022-10-16T01:43:06.508Z,71.96
2022-10-16T01:44:15.633Z,72.20
2022-10-16T01:45:20.205Z,72.32
2022-10-16T01:46:24.596Z,72.58
2022-10-16T01:47:28.629Z,72.45
2022-10-16T01:48:33.236Z,72.54
2022-10-16T01:49:38.586Z,72.46
2022-10-16T01:50:44.122Z,72.41
2022-10-16T01:51:49.508Z,72.37
2022-10-16T01:52:55.018Z,72.40
2022-10-16T01:54:00.562Z,72.28
2022-10-16T01:55:07.237Z,72.15
2022-10-16T01:56:12.678Z,71.81
2022-10-16T01:57:16.436Z,71.93
2022-10-16T01:58:18.464Z,71.60
2022-10-16T01:59:23.366Z,71.70
2022-10-16T02:00:26.936Z,71.99
2022-10-16T02:01:32.045Z,72.41
2022-10-16T02:02:34.628Z,72.44
2022-10-16T02:03:40.576Z,72.33
2022-10-16T02:05:59.371Z,71.49
2022-10-16T02:07:01.604Z,71.16
2022-10-16T02:08:05.617Z,71.16
2022-10-16T02:09:07.972Z,71.34
2022-10-16T02:10:11.530Z,71.32
2022-10-16T02:11:13.349Z,71.32
2022-10-16T02:12:31.927Z,71.41
2022-10-16T02:13:46.577Z,71.31
2022-10-16T02:14:48.795Z,71.14
2022-10-16T02:15:52.335Z,71.12
2022-10-16T02:16:56.203Z,71.15
2022-10-16T02:17:57.996Z,70.94
2022-10-16T02:19:00.183Z,70.70
2022-10-16T02:20:03.830Z,70.51
2022-10-16T02:21:09.426Z,70.13
2022-10-16T02:22:17.973Z,70.26
2022-10-16T02:23:23.611Z,70.14
2022-10-16T02:24:35.691Z,70.28
2022-10-16T02:25:41.251Z,70.44
2022-10-16T02:27:04.073Z,70.39
2022-10-16T02:28:24.934Z,70.28
2022-10-16T02:29:28.138Z,70.07
2022-10-16T02:30:45.643Z,69.99
2022-10-16T02:31:51.210Z,69.98
2022-10-16T02:32:55.739Z,70.33
2022-10-16T02:34:01.586Z,70.53
2022-10-16T02:35:05.422Z,70.60
2022-10-16T02:36:08.604Z,70.67
2022-10-16T02:37:11.045Z,70.89
2022-10-16T02:38:15.468Z,70.95
2022-10-16T02:39:18.656Z,71.09
2022-10-16T02:40:24.392Z,71.24
2022-10-16T02:41:25.211Z,71.14
2022-10-16T02:42:36.661Z,71.14
2022-10-16T02:43:38.739Z,71.04
2022-10-16T02:44:40.961Z,70.96
2022-10-16T02:45:42.745Z,70.83
2022-10-16T02:46:44.645Z,70.80
2022-10-16T02:47:46.984Z,70.73
2022-10-16T02:48:48.704Z,70.59
2022-10-16T02:49:50.321Z,70.44
2022-10-16T02:50:52.282Z,70.29
2022-10-16T02:51:54.112Z,70.02
2022-10-16T02:52:56.032Z,70.01
2022-10-16T02:53:58.020Z,70.25
2022-10-16T02:54:59.863Z,70.27
2022-10-16T02:56:01.911Z,70.91
2022-10-16T02:57:03.701Z,70.91
2022-10-16T02:58:06.270Z,70.80
2022-10-16T02:59:07.946Z,70.76
2022-10-16T03:00:13.412Z,70.50
2022-10-16T03:01:15.829Z,70.57
2022-10-16T03:02:18.205Z,70.61
2022-10-16T03:03:19.887Z,70.56
2022-10-16T03:04:21.617Z,70.66
2022-10-16T03:05:23.464Z,70.76
2022-10-16T03:06:25.864Z,70.66
2022-10-16T03:07:28.480Z,70.64
2022-10-16T03:08:30.523Z,70.54
2022-10-16T03:09:32.368Z,70.53
2022-10-16T03:10:35.087Z,70.35
2022-10-16T03:11:37.116Z,70.50
2022-10-16T03:12:38.945Z,70.64
2022-10-16T03:13:40.592Z,70.71
2022-10-16T03:14:42.373Z,70.60
2022-10-16T03:15:44.392Z,70.58
2022-10-16T03:16:46.298Z,70.54
2022-10-16T03:17:48.313Z,70.38
2022-10-16T03:18:50.208Z,70.43
2022-10-16T03:19:52.256Z,70.47
2022-10-16T03:20:54.266Z,70.56
2022-10-16T03:21:56.641Z,70.41
2022-10-16T03:22:59.239Z,70.37
2022-10-16T03:24:01.358Z,70.30
2022-10-16T03:25:04.240Z,70.00
2022-10-16T03:26:06.363Z,69.84
2022-10-16T03:27:08.404Z,69.89
2022-10-16T03:28:10.187Z,69.80
2022-10-16T03:29:11.957Z,69.83
2022-10-16T03:30:14.948Z,70.08
2022-10-16T03:31:16.777Z,70.06
2022-10-16T03:32:18.488Z,69.98
2022-10-16T03:33:20.350Z,70.04
2022-10-16T03:34:22.291Z,70.24
2022-10-16T03:35:24.869Z,70.85
2022-10-16T03:36:27.024Z,70.87
2022-10-16T03:37:31.057Z,71.02
2022-10-16T03:38:32.988Z,71.11
2022-10-16T03:39:34.643Z,71.11
2022-10-16T03:40:36.365Z,71.21
2022-10-16T03:41:38.292Z,71.32
2022-10-16T03:42:40.130Z,71.32
2022-10-16T03:43:41.870Z,71.28
2022-10-16T03:44:43.600Z,71.51
2022-10-16T03:45:45.349Z,71.51
2022-10-16T03:46:47.075Z,71.54
2022-10-16T03:47:49.883Z,71.47
2022-10-16T03:48:51.736Z,71.62
2022-10-16T03:49:53.578Z,71.59
2022-10-16T03:50:55.517Z,71.62
2022-10-16T03:51:57.346Z,71.90
2022-10-16T03:52:59.526Z,72.11
2022-10-16T03:54:01.363Z,72.04
2022-10-16T03:55:03.449Z,71.81
2022-10-16T03:56:06.319Z,71.79
2022-10-16T03:57:08.993Z,71.74
2022-10-16T03:58:11.418Z,72.30
2022-10-16T03:59:13.424Z,72.30
2022-10-16T04:00:15.471Z,72.23
2022-10-16T04:01:17.222Z,71.96
2022-10-16T04:02:19.602Z,71.56
2022-10-16T04:03:22.038Z,71.52
2022-10-16T04:04:24.348Z,71.55
2022-10-16T04:05:26.273Z,71.71
2022-10-16T04:06:28.775Z,71.67
2022-10-16T04:07:31.136Z,71.54
2022-10-16T04:08:33.545Z,71.27
2022-10-16T04:09:35.806Z,71.09
2022-10-16T04:10:38.039Z,71.15
2022-10-16T04:11:41.050Z,70.92
2022-10-16T04:12:42.901Z,70.81
2022-10-16T04:13:44.562Z,70.88
2022-10-16T04:14:46.538Z,70.79
2022-10-16T04:15:48.318Z,70.75
2022-10-16T04:16:50.430Z,70.67
2022-10-16T04:17:52.701Z,70.54
2022-10-16T04:18:54.610Z,70.66
2022-10-16T04:19:56.350Z,70.61
2022-10-16T04:21:03.957Z,70.74
2022-10-16T04:22:05.834Z,70.74
2022-10-16T04:23:07.658Z,70.84
2022-10-16T04:24:09.424Z,70.81
2022-10-16T04:25:11.557Z,70.88
2022-10-16T04:26:13.366Z,70.90
2022-10-16T04:27:15.093Z,70.89
2022-10-16T04:28:16.770Z,71.08
2022-10-16T04:29:18.635Z,70.87
2022-10-16T04:30:21.736Z,70.70
2022-10-16T04:31:24.046Z,71.09
2022-10-16T04:32:26.870Z,71.20
2022-10-16T04:33:28.727Z,71.25
2022-10-16T04:34:30.626Z,71.38
2022-10-16T04:35:32.470Z,71.75
2022-10-16T04:36:34.477Z,71.75
2022-10-16T04:37:36.139Z,71.76
2022-10-16T04:38:37.989Z,71.74
2022-10-16T04:39:40.365Z,71.79
2022-10-16T04:40:43.192Z,71.75
2022-10-16T04:41:46.343Z,71.67
2022-10-16T04:42:48.160Z,71.77
2022-10-16T04:43:50.495Z,71.97
2022-10-16T04:44:52.298Z,71.80
2022-10-16T04:45:54.049Z,72.23
2022-10-16T04:46:55.862Z,72.80
2022-10-16T04:47:58.615Z,73.22
2022-10-16T04:49:00.406Z,73.23
2022-10-16T04:50:03.171Z,73.02
2022-10-16T04:51:05.402Z,72.86
2022-10-16T04:52:08.155Z,72.82
2022-10-16T04:53:10.590Z,72.69
2022-10-16T04:54:13.362Z,72.63
2022-10-16T04:55:15.304Z,72.54
2022-10-16T04:56:17.499Z,72.70
2022-10-16T04:57:19.216Z,72.69
2022-10-16T04:58:21.238Z,72.28
2022-10-16T04:59:24.419Z,72.24
2022-10-16T05:00:27.952Z,72.12
2022-10-16T05:01:29.903Z,72.02
2022-10-16T05:02:32.115Z,71.70
2022-10-16T05:03:34.798Z,71.66
2022-10-16T05:04:36.786Z,71.39
2022-10-16T05:05:43.800Z,71.42
2022-10-16T05:06:45.828Z,71.32
2022-10-16T05:07:48.252Z,71.00
2022-10-16T05:08:50.198Z,71.04
2022-10-16T05:09:52.112Z,70.64
2022-10-16T05:10:54.215Z,70.55
2022-10-16T05:11:56.290Z,70.60
2022-10-16T05:12:58.244Z,70.55
2022-10-16T05:14:00.629Z,70.57
2022-10-16T05:15:03.745Z,70.57
2022-10-16T05:16:06.666Z,70.57
2022-10-16T05:17:08.604Z,70.79
2022-10-16T05:18:10.454Z,70.76
2022-10-16T05:19:26.788Z,71.03
2022-10-16T05:20:16.869Z,71.08
2022-10-16T05:21:18.706Z,71.12
2022-10-16T05:22:21.033Z,71.16
2022-10-16T05:23:22.950Z,71.29
2022-10-16T05:24:25.716Z,71.18
2022-10-16T05:25:27.584Z,70.80
2022-10-16T05:26:29.604Z,70.81
2022-10-16T05:27:31.415Z,70.60
2022-10-16T05:28:33.524Z,70.60
2022-10-16T05:29:35.448Z,70.88
2022-10-16T05:30:38.100Z,70.84
2022-10-16T05:31:40.348Z,71.13
2022-10-16T05:32:44.303Z,71.75
2022-10-16T05:33:46.254Z,72.50
2022-10-16T05:34:48.008Z,72.28
2022-10-16T05:35:50.695Z,72.13
2022-10-16T05:36:53.129Z,72.27
2022-10-16T05:37:55.198Z,72.49
2022-10-16T05:38:57.542Z,72.16
2022-10-16T05:39:59.401Z,71.66
2022-10-16T05:41:01.477Z,71.76
2022-10-16T05:42:03.705Z,71.58
2022-10-16T05:43:06.634Z,71.59
2022-10-16T05:44:08.815Z,71.79
2022-10-16T05:45:11.731Z,71.95
2022-10-16T05:46:14.687Z,71.65
2022-10-16T05:47:16.554Z,71.65
2022-10-16T05:48:18.422Z,71.55
2022-10-16T05:49:20.274Z,71.22
2022-10-16T05:50:22.018Z,71.25
2022-10-16T05:51:23.990Z,70.95
2022-10-16T05:52:27.275Z,70.97
2022-10-16T05:53:31.098Z,70.96
2022-10-16T05:54:32.927Z,70.93
2022-10-16T05:55:34.668Z,70.94
2022-10-16T05:56:36.781Z,70.92
2022-10-16T05:57:38.947Z,70.92
2022-10-16T05:58:41.265Z,71.00
2022-10-16T05:59:44.137Z,70.77
2022-10-16T06:00:55.780Z,70.78
2022-10-16T06:01:57.910Z,70.89
2022-10-16T06:02:59.656Z,70.92
2022-10-16T06:04:02.518Z,71.09
2022-10-16T06:05:05.756Z,70.97
2022-10-16T06:06:14.059Z,70.70
2022-10-16T06:07:16.925Z,70.68
2022-10-16T06:08:21.968Z,70.93
2022-10-16T06:09:23.819Z,71.04
2022-10-16T06:10:25.569Z,70.87
2022-10-16T06:11:30.856Z,70.93
2022-10-16T06:12:32.862Z,71.06
2022-10-16T06:13:35.502Z,71.08
2022-10-16T06:14:37.368Z,71.29
2022-10-16T06:15:40.242Z,71.29
2022-10-16T06:16:42.773Z,71.28
2022-10-16T06:17:44.579Z,71.39
2022-10-16T06:18:47.219Z,71.68
2022-10-16T06:19:49.105Z,72.06
2022-10-16T06:20:51.601Z,71.87
2022-10-16T06:21:53.377Z,71.61
2022-10-16T06:22:55.171Z,71.50
2022-10-16T06:23:58.501Z,71.53
2022-10-16T06:25:00.901Z,71.42
2022-10-16T06:26:13.697Z,71.20
2022-10-16T06:27:16.109Z,71.09
2022-10-16T06:28:18.133Z,70.91
2022-10-16T06:29:20.531Z,70.61
2022-10-16T06:30:22.490Z,70.59
2022-10-16T06:31:26.004Z,70.51
2022-10-16T06:32:28.232Z,70.52
2022-10-16T06:33:30.256Z,70.52
2022-10-16T06:34:32.048Z,69.77
2022-10-16T06:35:34.212Z,69.77
2022-10-16T06:36:37.053Z,69.90
2022-10-16T06:37:39.022Z,69.88
2022-10-16T06:38:42.733Z,69.94
2022-10-16T06:39:45.098Z,69.79
2022-10-16T06:40:47.133Z,69.93
2022-10-16T06:41:49.428Z,70.68
2022-10-16T06:42:51.430Z,70.86
2022-10-16T06:43:53.289Z,70.67
2022-10-16T06:44:55.272Z,70.58
2022-10-16T06:45:58.656Z,70.64
2022-10-16T06:47:00.666Z,71.03
2022-10-16T06:48:03.793Z,71.49
2022-10-16T06:49:05.560Z,71.61
2022-10-16T06:50:08.222Z,71.55
2022-10-16T06:51:14.893Z,71.36
2022-10-16T06:52:17.096Z,71.17
2022-10-16T06:53:19.906Z,71.09
2022-10-16T06:54:21.687Z,71.20
2022-10-16T06:55:23.430Z,71.54
2022-10-16T06:56:27.564Z,71.54
2022-10-16T06:57:30.373Z,71.44
2022-10-16T06:58:32.166Z,71.24
2022-10-16T06:59:33.832Z,70.91
2022-10-16T07:00:35.568Z,70.75
2022-10-16T07:01:38.718Z,70.60
2022-10-16T07:02:40.728Z,70.62
2022-10-16T07:03:44.848Z,70.58
2022-10-16T07:04:46.795Z,70.34
2022-10-16T07:05:48.625Z,70.24
2022-10-16T07:06:50.586Z,70.11
2022-10-16T07:07:53.277Z,70.01
2022-10-16T07:08:55.169Z,69.92
2022-10-16T07:09:56.902Z,69.89
2022-10-16T07:11:02.068Z,69.95
2022-10-16T07:12:06.653Z,69.83
2022-10-16T07:13:08.548Z,69.68
2022-10-16T07:14:19.065Z,69.92
2022-10-16T07:15:20.812Z,70.00
2022-10-16T07:16:31.626Z,70.09
2022-10-16T07:17:33.487Z,70.21
2022-10-16T07:18:36.243Z,70.19
2022-10-16T07:19:38.080Z,70.47
2022-10-16T07:20:40.596Z,70.62
2022-10-16T07:21:42.992Z,70.51
2022-10-16T07:22:45.393Z,70.67
2022-10-16T07:23:56.184Z,70.52
2022-10-16T07:24:58.046Z,70.22
2022-10-16T07:26:00.281Z,69.86
2022-10-16T07:27:03.247Z,69.55
2022-10-16T07:28:06.119Z,69.39
2022-10-16T07:29:14.936Z,69.54
2022-10-16T07:30:17.572Z,69.49
2022-10-16T07:31:20.862Z,69.24
2022-10-16T07:32:22.914Z,68.96
2022-10-16T07:33:24.595Z,68.43
2022-10-16T07:34:26.455Z,68.66
2022-10-16T07:35:29.508Z,68.99
2022-10-16T07:36:32.545Z,69.03
2022-10-16T07:37:34.465Z,68.94
2022-10-16T07:38:36.521Z,68.93
2022-10-16T07:39:38.316Z,69.11
2022-10-16T07:40:41.391Z,69.24
2022-10-16T07:41:44.870Z,69.31
2022-10-16T07:42:47.681Z,69.23
2022-10-16T07:43:53.322Z,69.16
2022-10-16T07:44:55.290Z,69.19
2022-10-16T07:46:02.432Z,69.08
2022-10-16T07:47:03.789Z,69.00
2022-10-16T07:48:06.102Z,68.93
2022-10-16T07:49:10.154Z,68.93
2022-10-16T07:50:12.417Z,68.89
2022-10-16T07:51:17.838Z,68.76
2022-10-16T07:52:21.060Z,68.84
2022-10-16T07:53:26.216Z,68.76
2022-10-16T07:54:27.369Z,68.48
2022-10-16T07:55:30.154Z,68.55
2022-10-16T07:56:33.044Z,68.38
2022-10-16T07:57:35.612Z,68.20
2022-10-16T07:58:38.693Z,68.39
2022-10-16T07:59:40.583Z,68.39
2022-10-16T08:00:43.086Z,68.28
2022-10-16T08:01:47.162Z,68.09
2022-10-16T08:02:49.505Z,67.77
2022-10-16T08:03:52.731Z,67.90
2022-10-16T08:04:54.736Z,67.83
2022-10-16T08:05:58.178Z,67.80
2022-10-16T08:07:01.439Z,67.56
2022-10-16T08:08:05.409Z,67.54
2022-10-16T08:09:09.451Z,67.69
2022-10-16T08:11:27.379Z,67.60
2022-10-16T08:12:29.299Z,67.60
2022-10-16T08:13:32.257Z,68.02
2022-10-16T08:14:34.134Z,68.02
2022-10-16T08:15:36.034Z,67.64
2022-10-16T08:16:38.759Z,67.20
2022-10-16T08:17:40.461Z,66.97
2022-10-16T08:18:43.063Z,67.02
2022-10-16T08:19:47.781Z,66.34
2022-10-16T08:20:56.022Z,69.64
2022-10-16T08:21:57.868Z,70.52
2022-10-16T08:23:01.112Z,68.16
2022-10-16T08:24:03.210Z,72.43
2022-10-16T08:25:05.728Z,75.13
2022-10-16T08:26:09.297Z,79.48
2022-10-16T08:27:11.094Z,74.12
2022-10-16T08:28:12.719Z,78.82
2022-10-16T08:29:15.718Z,70.04
2022-10-16T08:30:21.553Z,68.43
2022-10-16T08:31:24.350Z,66.52
2022-10-16T08:32:27.604Z,64.75
2022-10-16T08:33:30.313Z,65.61
2022-10-16T08:34:32.248Z,64.90
2022-10-16T08:35:34.695Z,70.95
2022-10-16T08:36:38.005Z,76.18
2022-10-16T08:37:40.704Z,72.98
2022-10-16T08:38:43.139Z,71.55
2022-10-16T08:39:44.868Z,70.38
2022-10-16T08:40:51.246Z,68.31
2022-10-16T08:42:05.863Z,66.99
2022-10-16T08:43:20.324Z,65.08
2022-10-16T08:44:38.579Z,65.08
2022-10-16T08:45:47.547Z,71.67
2022-10-16T08:47:14.533Z,68.49
2022-10-16T08:48:43.039Z,64.86
2022-10-16T08:49:48.662Z,65.66
2022-10-16T08:50:54.400Z,63.57
2022-10-16T08:51:57.163Z,62.70
2022-10-16T08:52:59.713Z,63.92
2022-10-16T08:54:29.418Z,63.39
2022-10-16T08:55:41.695Z,64.30
2022-10-16T08:56:49.659Z,69.08
2022-10-16T08:57:55.060Z,64.01
2022-10-16T08:59:01.527Z,66.97
2022-10-16T09:00:09.410Z,73.33
2022-10-16T09:01:18.762Z,65.61
2022-10-16T09:02:32.930Z,72.27
2022-10-16T09:03:52.530Z,60.54
2022-10-16T09:07:01.233Z,56.09
2022-10-16T09:08:13.433Z,55.77
2022-10-16T09:09:45.760Z,56.52
2022-10-16T09:11:05.701Z,56.60
2022-10-16T09:12:41.914Z,55.73
2022-10-16T09:14:09.582Z,56.49
2022-10-16T09:15:16.360Z,56.72
2022-10-16T09:16:38.375Z,57.01
2022-10-16T09:18:15.867Z,57.58
2022-10-16T09:19:34.139Z,57.24
2022-10-16T09:22:14.259Z,56.93
2022-10-16T09:23:28.139Z,56.31
2022-10-16T09:24:37.914Z,56.48
2022-10-16T09:25:43.769Z,56.48
2022-10-16T09:26:48.294Z,56.47
2022-10-16T09:27:53.400Z,56.70
2022-10-16T09:28:56.220Z,56.12
2022-10-16T09:29:59.975Z,55.80
2022-10-16T09:31:02.221Z,55.55
2022-10-16T09:32:16.629Z,55.05
2022-10-16T09:33:25.316Z,54.95
2022-10-16T09:34:37.685Z,54.58
2022-10-16T09:35:43.633Z,54.26
2022-10-16T09:36:46.878Z,54.50
2022-10-16T09:37:52.331Z,54.07
2022-10-16T09:39:09.767Z,54.81
2022-10-16T09:40:16.173Z,54.86
2022-10-16T09:41:21.678Z,54.56
2022-10-16T09:42:29.352Z,53.87
2022-10-16T09:43:40.880Z,54.05
2022-10-16T09:44:44.718Z,54.45
2022-10-16T09:46:04.702Z,54.67
2022-10-16T09:47:10.217Z,54.53
2022-10-16T09:48:15.253Z,54.49
2022-10-16T09:49:26.594Z,54.85
2022-10-16T09:50:29.879Z,54.57
2022-10-16T09:51:34.941Z,53.71
2022-10-16T09:52:36.851Z,53.54
2022-10-16T09:53:44.816Z,53.81
2022-10-16T09:54:55.681Z,53.81
2022-10-16T09:55:58.242Z,53.39
2022-10-16T09:57:10.345Z,53.42
2022-10-16T09:58:14.210Z,53.48
2022-10-16T09:59:18.071Z,52.98
2022-10-16T10:00:23.652Z,52.90
2022-10-16T10:01:30.267Z,52.59
2022-10-16T10:02:38.123Z,52.66
2022-10-16T10:03:44.936Z,52.61
2022-10-16T10:04:55.416Z,52.68
2022-10-16T10:06:01.281Z,53.31
2022-10-16T10:07:02.277Z,52.92
2022-10-16T10:08:05.903Z,52.75
2022-10-16T10:09:30.570Z,52.92
2022-10-16T10:10:36.720Z,52.09
2022-10-16T10:11:41.854Z,51.76
2022-10-16T10:12:46.217Z,51.38
2022-10-16T10:13:49.218Z,51.15
2022-10-16T10:14:54.783Z,51.34
2022-10-16T10:15:57.798Z,51.77
2022-10-16T10:17:15.692Z,51.84
2022-10-16T10:18:24.072Z,51.09
2022-10-16T10:19:28.149Z,51.27
2022-10-16T10:20:34.657Z,51.30
2022-10-16T10:21:39.477Z,51.29
2022-10-16T10:22:45.896Z,56.40
2022-10-16T10:23:56.266Z,53.25
2022-10-16T10:25:11.033Z,63.38
2022-10-16T10:26:17.757Z,57.95
2022-10-16T10:27:21.410Z,54.36
2022-10-16T10:28:55.148Z,61.51
2022-10-16T10:30:03.773Z,60.05
2022-10-16T10:31:28.227Z,61.08
2022-10-16T10:32:52.724Z,58.54
2022-10-16T10:34:10.487Z,51.85
2022-10-16T10:35:25.719Z,67.28
2022-10-16T10:36:34.839Z,61.40
2022-10-16T10:37:55.619Z,60.90
2022-10-16T10:39:04.215Z,54.33
2022-10-16T10:40:29.587Z,55.90
2022-10-16T10:41:55.076Z,59.81
2022-10-16T10:43:01.198Z,59.17
2022-10-16T10:44:41.478Z,61.98
2022-10-16T10:45:46.894Z,53.83
2022-10-16T10:46:58.152Z,62.54
2022-10-16T10:48:32.883Z,55.55
2022-10-16T10:49:55.060Z,60.54
2022-10-16T10:51:23.452Z,54.57
2022-10-16T10:52:37.725Z,50.42
2022-10-16T10:53:48.975Z,50.70
2022-10-16T10:55:12.763Z,50.06
2022-10-16T10:56:18.531Z,64.18
2022-10-16T10:58:59.575Z,56.42
2022-10-16T11:00:39.998Z,49.89
2022-10-16T11:01:58.056Z,53.71
2022-10-16T11:03:25.414Z,51.66
2022-10-16T11:04:42.901Z,54.03
2022-10-16T11:06:00.844Z,59.92
2022-10-16T11:07:06.435Z,52.68
2022-10-16T11:08:15.209Z,58.22
2022-10-16T11:09:21.057Z,58.88
2022-10-16T11:10:26.637Z,52.27
2022-10-16T11:11:49.028Z,51.72
2022-10-16T11:12:58.424Z,57.52
2022-10-16T11:14:19.441Z,49.42
2022-10-16T11:15:31.622Z,69.31
2022-10-16T11:16:37.764Z,59.31
2022-10-16T11:17:43.330Z,58.34
2022-10-16T11:19:14.704Z,54.38
2022-10-16T11:21:59.018Z,54.90
2022-10-16T11:23:37.877Z,67.86
2022-10-16T11:24:55.983Z,59.05
2022-10-16T11:26:02.756Z,48.53
2022-10-16T11:27:09.546Z,45.13
2022-10-16T11:28:21.075Z,49.93
2022-10-16T11:30:58.427Z,59.33
2022-10-16T11:33:27.256Z,50.59
2022-10-16T11:34:42.012Z,47.20
2022-10-16T11:36:13.644Z,52.39
2022-10-16T11:37:22.128Z,54.50
2022-10-16T11:38:39.156Z,53.78
2022-10-16T11:39:44.486Z,60.31
2022-10-16T11:40:49.051Z,63.74
2022-10-16T11:41:58.708Z,59.71
2022-10-16T11:43:19.713Z,57.20
2022-10-16T11:44:54.924Z,62.25
2022-10-16T11:46:00.513Z,57.67
2022-10-16T11:47:33.965Z,63.82
2022-10-16T11:48:33.693Z,65.58
2022-10-16T11:49:38.595Z,52.49
2022-10-16T11:50:56.593Z,45.12
2022-10-16T11:52:28.232Z,45.93
2022-10-16T11:53:49.097Z,54.61
2022-10-16T11:55:02.797Z,60.35
2022-10-16T11:56:06.055Z,60.98
2022-10-16T11:57:14.972Z,46.53
2022-10-16T11:58:35.631Z,56.08
2022-10-16T11:59:50.499Z,61.35
2022-10-16T12:01:12.264Z,50.32
2022-10-16T12:02:35.183Z,52.81
2022-10-16T12:03:44.902Z,56.56
2022-10-16T12:04:50.579Z,53.04
2022-10-16T12:06:01.908Z,57.16
2022-10-16T12:07:11.575Z,51.14
2022-10-16T12:08:16.689Z,53.28
2022-10-16T12:09:23.800Z,53.41
2022-10-16T12:10:29.135Z,49.90
2022-10-16T12:11:39.902Z,45.05
2022-10-16T12:12:41.732Z,42.75
2022-10-16T12:13:45.126Z,48.20
2022-10-16T12:15:11.182Z,44.46
2022-10-16T12:15:59.258Z,41.78
2022-10-16T12:16:57.827Z,51.02
2022-10-16T12:18:01.235Z,47.14
2022-10-16T12:19:16.306Z,48.74
2022-10-16T12:20:22.305Z,43.98
2022-10-16T12:21:27.774Z,44.45
2022-10-16T12:22:32.192Z,42.28
2022-10-16T12:23:41.712Z,47.60
2022-10-16T12:24:44.396Z,47.11
2022-10-16T12:25:50.411Z,47.53
2022-10-16T12:26:53.744Z,41.88
2022-10-16T12:28:16.938Z,43.31
2022-10-16T12:29:25.467Z,41.09
2022-10-16T12:30:35.009Z,43.76
2022-10-16T12:31:49.670Z,40.05
2022-10-16T12:32:49.582Z,45.73
2022-10-16T12:34:01.611Z,43.84
2022-10-16T12:35:07.350Z,41.47
2022-10-16T12:37:35.429Z,46.84
2022-10-16T12:38:41.959Z,44.22
2022-10-16T12:39:44.084Z,50.34
2022-10-16T12:40:49.539Z,39.77
2022-10-16T12:42:03.116Z,38.98
2022-10-16T12:43:28.890Z,38.38
2022-10-16T12:44:34.978Z,38.07
2022-10-16T12:45:36.847Z,38.30
2022-10-16T12:46:40.264Z,38.69
2022-10-16T12:47:51.441Z,38.49
2022-10-16T12:49:08.655Z,37.90
2022-10-16T12:50:00.433Z,38.08
2022-10-16T12:51:31.918Z,37.86
2022-10-16T12:52:39.647Z,37.43
2022-10-16T12:53:41.579Z,37.55
2022-10-16T12:54:43.927Z,37.95
2022-10-16T12:56:17.794Z,37.80
2022-10-16T12:57:35.553Z,37.52
2022-10-16T12:58:49.444Z,37.26
2022-10-16T13:00:20.937Z,36.67
2022-10-16T13:01:29.790Z,36.62
2022-10-16T13:02:41.140Z,36.29
2022-10-16T13:04:02.958Z,35.82
2022-10-16T13:05:29.840Z,35.25
2022-10-16T13:08:07.163Z,34.91
2022-10-16T13:09:15.523Z,34.54
2022-10-16T13:10:33.405Z,34.36
2022-10-16T13:12:00.499Z,33.63
2022-10-16T13:13:41.489Z,34.16
2022-10-16T13:14:59.249Z,32.54
2022-10-16T13:16:08.262Z,37.50
2022-10-16T13:17:26.629Z,34.97
2022-10-16T13:18:50.967Z,36.23
2022-10-16T13:20:00.041Z,34.67
2022-10-16T13:21:33.648Z,34.94
2022-10-16T13:22:45.782Z,38.40
2022-10-16T13:24:03.430Z,34.50
2022-10-16T13:25:24.784Z,37.10
2022-10-16T13:26:42.211Z,35.61
2022-10-16T13:27:59.011Z,33.68
2022-10-16T13:29:02.573Z,34.75
2022-10-16T13:30:20.749Z,33.68
2022-10-16T13:31:26.338Z,35.37
2022-10-16T13:32:29.685Z,34.18
2022-10-16T13:33:40.482Z,36.97
2022-10-16T13:34:45.936Z,37.04
2022-10-16T13:35:56.852Z,34.11
2022-10-16T13:36:59.373Z,34.66
2022-10-16T13:39:29.973Z,34.40
2022-10-16T13:40:32.876Z,36.37
2022-10-16T13:41:34.777Z,34.90
2022-10-16T13:42:36.641Z,35.84
2022-10-16T13:43:42.617Z,35.97
2022-10-16T13:44:48.151Z,35.58
2022-10-16T13:46:03.057Z,38.06
2022-10-16T13:47:06.249Z,36.00
2022-10-16T13:48:10.490Z,36.78
2022-10-16T13:49:18.668Z,36.95
2022-10-16T13:50:21.420Z,35.26
2022-10-16T13:52:25.911Z,35.08
2022-10-16T13:53:34.641Z,36.46
2022-10-16T13:54:36.960Z,36.04
2022-10-16T13:55:40.089Z,38.00
2022-10-16T13:56:42.090Z,36.03
2022-10-16T13:57:44.559Z,35.45
2022-10-16T13:58:46.831Z,37.03
2022-10-16T13:59:49.082Z,37.67
2022-10-16T14:00:56.334Z,36.06
2022-10-16T14:02:01.824Z,36.97
2022-10-16T14:03:15.839Z,36.87
2022-10-16T14:04:18.616Z,35.96
2022-10-16T14:05:22.135Z,36.71
2022-10-16T14:06:25.095Z,35.15
2022-10-16T14:07:30.395Z,35.80
2022-10-16T14:08:34.216Z,35.29
2022-10-16T14:09:37.858Z,37.85
2022-10-16T14:10:41.310Z,35.55
2022-10-16T14:11:53.145Z,39.18
2022-10-16T14:12:58.105Z,37.63
2022-10-16T14:14:00.874Z,37.66
2022-10-16T14:15:04.798Z,36.73
2022-10-16T14:16:10.223Z,39.42
2022-10-16T14:17:30.005Z,38.34
2022-10-16T14:18:33.578Z,38.44
2022-10-16T14:19:36.130Z,41.97
2022-10-16T14:20:38.324Z,38.21
2022-10-16T14:21:42.471Z,37.32
2022-10-16T14:22:44.785Z,37.76
2022-10-16T14:23:46.901Z,37.12
2022-10-16T14:24:48.871Z,36.68
2022-10-16T14:25:51.359Z,37.55
2022-10-16T14:26:53.902Z,37.44
2022-10-16T14:29:17.804Z,37.17
2022-10-16T14:30:22.245Z,38.30
2022-10-16T14:31:28.274Z,39.41
2022-10-16T14:32:30.195Z,38.53
2022-10-16T14:33:34.203Z,38.78
2022-10-16T14:34:39.566Z,38.80
2022-10-16T14:35:41.540Z,39.21
2022-10-16T14:36:45.995Z,39.35